Double Oak, Texas
Current Conditions -  °F | °C
As of 11:53 AM on Thursday 18 Dec 2014 (Local Time) from KDFW Reporting Station
Haze Haze  
Wind Chill: 48°   Ceiling: 500
Heat Index: 48°   Visibility: 2mi
Dew Point: 45°   Wind: 3mph
Humidity: 89%   Direction: 40°NE
Pressure: 30.15"   Gusts: NA
Location:  33.0461°N, 96.9938°W
Report Text: KDFW 181753Z 04003KT 2SM BR OVC005 09/07 A3015 RMK AO2 SFC VIS 4 SLP210 60000 T00890072 10089 20056 50002
Loading
Personal Weather Stations






























Interactive Weather Map New forecast layout! Learn more

10-Day Weather Forecast

Advertisements
Track Severe Weather on mobile